sensor_id;sensor_type;location;lat;lon;timestamp;P1;durP1;ratioP1;P2;durP2;ratioP2
46090;SDS011;31826;53.572;10.170;2024-01-30T00:01:36;9.05;;;4.65;;
46090;SDS011;31826;53.572;10.170;2024-01-30T00:04:02;10.73;;;4.93;;
46090;SDS011;31826;53.572;10.170;2024-01-30T00:06:27;12.95;;;5.57;;
46090;SDS011;31826;53.572;10.170;2024-01-30T00:08:53;11.97;;;4.77;;
46090;SDS011;31826;53.572;10.170;2024-01-30T00:11:19;9.57;;;4.60;;
46090;SDS011;31826;53.572;10.170;2024-01-30T00:13:45;11.18;;;5.20;;
46090;SDS011;31826;53.572;10.170;2024-01-30T00:16:20;9.80;;;4.70;;
46090;SDS011;31826;53.572;10.170;2024-01-30T00:18:47;9.60;;;4.60;;
46090;SDS011;31826;53.572;10.170;2024-01-30T00:21:13;11.57;;;4.57;;
46090;SDS011;31826;53.572;10.170;2024-01-30T00:23:39;15.07;;;5.35;;
46090;SDS011;31826;53.572;10.170;2024-01-30T00:26:04;9.67;;;4.30;;
46090;SDS011;31826;53.572;10.170;2024-01-30T00:28:31;10.75;;;4.95;;
46090;SDS011;31826;53.572;10.170;2024-01-30T00:30:57;12.38;;;4.70;;
46090;SDS011;31826;53.572;10.170;2024-01-30T00:33:22;11.05;;;4.82;;
46090;SDS011;31826;53.572;10.170;2024-01-30T00:35:48;9.98;;;4.80;;
46090;SDS011;31826;53.572;10.170;2024-01-30T00:38:13;10.68;;;4.90;;
46090;SDS011;31826;53.572;10.170;2024-01-30T00:40:39;11.63;;;5.20;;
46090;SDS011;31826;53.572;10.170;2024-01-30T00:43:06;9.87;;;4.60;;
46090;SDS011;31826;53.572;10.170;2024-01-30T00:45:32;11.80;;;4.70;;
46090;SDS011;31826;53.572;10.170;2024-01-30T00:47:57;10.40;;;4.63;;
46090;SDS011;31826;53.572;10.170;2024-01-30T00:50:23;10.47;;;4.77;;
46090;SDS011;31826;53.572;10.170;2024-01-30T00:52:49;10.13;;;4.87;;
46090;SDS011;31826;53.572;10.170;2024-01-30T00:55:14;11.40;;;4.93;;
46090;SDS011;31826;53.572;10.170;2024-01-30T00:57:40;10.47;;;4.83;;
46090;SDS011;31826;53.572;10.170;2024-01-30T01:00:06;9.15;;;4.40;;
46090;SDS011;31826;53.572;10.170;2024-01-30T01:02:34;11.00;;;4.88;;
46090;SDS011;31826;53.572;10.170;2024-01-30T01:05:00;9.82;;;4.30;;
46090;SDS011;31826;53.572;10.170;2024-01-30T01:07:27;10.68;;;4.93;;
46090;SDS011;31826;53.572;10.170;2024-01-30T01:09:52;11.73;;;4.80;;
46090;SDS011;31826;53.572;10.170;2024-01-30T01:12:18;10.45;;;4.63;;
46090;SDS011;31826;53.572;10.170;2024-01-30T01:14:44;11.00;;;4.93;;
46090;SDS011;31826;53.572;10.170;2024-01-30T01:17:10;9.15;;;4.72;;
46090;SDS011;31826;53.572;10.170;2024-01-30T01:19:36;9.82;;;4.70;;
46090;SDS011;31826;53.572;10.170;2024-01-30T01:22:01;10.98;;;4.80;;
46090;SDS011;31826;53.572;10.170;2024-01-30T01:24:28;12.40;;;4.90;;
46090;SDS011;31826;53.572;10.170;2024-01-30T01:26:56;10.50;;;4.60;;
46090;SDS011;31826;53.572;10.170;2024-01-30T01:29:23;9.68;;;4.45;;
46090;SDS011;31826;53.572;10.170;2024-01-30T01:31:53;11.70;;;4.97;;
46090;SDS011;31826;53.572;10.170;2024-01-30T01:34:22;10.50;;;4.95;;
46090;SDS011;31826;53.572;10.170;2024-01-30T01:36:48;11.50;;;5.30;;
46090;SDS011;31826;53.572;10.170;2024-01-30T01:39:14;10.02;;;4.63;;
46090;SDS011;31826;53.572;10.170;2024-01-30T01:41:40;12.88;;;5.15;;
46090;SDS011;31826;53.572;10.170;2024-01-30T01:44:07;12.47;;;5.10;;
46090;SDS011;31826;53.572;10.170;2024-01-30T01:46:33;13.15;;;5.50;;
46090;SDS011;31826;53.572;10.170;2024-01-30T01:49:00;10.93;;;5.15;;
46090;SDS011;31826;53.572;10.170;2024-01-30T01:51:30;12.40;;;4.88;;
46090;SDS011;31826;53.572;10.170;2024-01-30T01:53:58;11.57;;;4.97;;
46090;SDS011;31826;53.572;10.170;2024-01-30T01:56:27;11.20;;;5.27;;
46090;SDS011;31826;53.572;10.170;2024-01-30T01:58:54;11.85;;;5.47;;
46090;SDS011;31826;53.572;10.170;2024-01-30T02:01:22;11.93;;;4.90;;
46090;SDS011;31826;53.572;10.170;2024-01-30T02:03:50;11.10;;;5.25;;
46090;SDS011;31826;53.572;10.170;2024-01-30T02:06:16;13.00;;;6.10;;
46090;SDS011;31826;53.572;10.170;2024-01-30T02:08:42;13.07;;;5.30;;
46090;SDS011;31826;53.572;10.170;2024-01-30T02:11:08;10.13;;;4.90;;
46090;SDS011;31826;53.572;10.170;2024-01-30T02:13:35;10.50;;;5.22;;
46090;SDS011;31826;53.572;10.170;2024-01-30T02:16:01;11.82;;;5.53;;
46090;SDS011;31826;53.572;10.170;2024-01-30T02:18:27;13.55;;;6.15;;
46090;SDS011;31826;53.572;10.170;2024-01-30T02:20:53;20.53;;;9.77;;
46090;SDS011;31826;53.572;10.170;2024-01-30T02:23:21;16.88;;;9.02;;
46090;SDS011;31826;53.572;10.170;2024-01-30T02:25:52;20.77;;;10.82;;
46090;SDS011;31826;53.572;10.170;2024-01-30T02:28:18;17.85;;;8.45;;
46090;SDS011;31826;53.572;10.170;2024-01-30T02:30:45;15.77;;;7.85;;
46090;SDS011;31826;53.572;10.170;2024-01-30T02:33:12;15.82;;;7.53;;
46090;SDS011;31826;53.572;10.170;2024-01-30T02:35:38;15.65;;;8.63;;
46090;SDS011;31826;53.572;10.170;2024-01-30T02:38:04;14.93;;;7.15;;
46090;SDS011;31826;53.572;10.170;2024-01-30T02:40:30;11.43;;;6.43;;
46090;SDS011;31826;53.572;10.170;2024-01-30T02:42:56;12.20;;;5.75;;
46090;SDS011;31826;53.572;10.170;2024-01-30T02:45:24;12.93;;;6.90;;
46090;SDS011;31826;53.572;10.170;2024-01-30T02:47:50;20.00;;;8.93;;
46090;SDS011;31826;53.572;10.170;2024-01-30T02:50:16;14.30;;;8.30;;
46090;SDS011;31826;53.572;10.170;2024-01-30T02:52:42;16.73;;;7.55;;
46090;SDS011;31826;53.572;10.170;2024-01-30T02:55:11;14.20;;;7.78;;
46090;SDS011;31826;53.572;10.170;2024-01-30T02:57:37;15.18;;;8.27;;
46090;SDS011;31826;53.572;10.170;2024-01-30T03:00:06;14.68;;;7.72;;
46090;SDS011;31826;53.572;10.170;2024-01-30T03:02:34;12.85;;;6.70;;
46090;SDS011;31826;53.572;10.170;2024-01-30T03:05:00;14.50;;;6.90;;
46090;SDS011;31826;53.572;10.170;2024-01-30T03:07:26;13.93;;;6.23;;
46090;SDS011;31826;53.572;10.170;2024-01-30T03:09:52;12.90;;;6.63;;
46090;SDS011;31826;53.572;10.170;2024-01-30T03:12:17;12.60;;;6.77;;
46090;SDS011;31826;53.572;10.170;2024-01-30T03:14:43;13.00;;;6.73;;
46090;SDS011;31826;53.572;10.170;2024-01-30T03:17:09;13.60;;;6.47;;
46090;SDS011;31826;53.572;10.170;2024-01-30T03:19:34;11.85;;;5.93;;
46090;SDS011;31826;53.572;10.170;2024-01-30T03:22:00;13.02;;;5.88;;
46090;SDS011;31826;53.572;10.170;2024-01-30T03:24:26;10.88;;;5.47;;
46090;SDS011;31826;53.572;10.170;2024-01-30T03:26:51;11.13;;;5.22;;
46090;SDS011;31826;53.572;10.170;2024-01-30T03:29:17;11.65;;;5.53;;
46090;SDS011;31826;53.572;10.170;2024-01-30T03:31:43;14.10;;;5.75;;
46090;SDS011;31826;53.572;10.170;2024-01-30T03:34:09;11.73;;;5.40;;
46090;SDS011;31826;53.572;10.170;2024-01-30T03:36:35;11.18;;;5.50;;
46090;SDS011;31826;53.572;10.170;2024-01-30T03:39:01;11.75;;;5.70;;
46090;SDS011;31826;53.572;10.170;2024-01-30T03:41:27;13.07;;;5.40;;
46090;SDS011;31826;53.572;10.170;2024-01-30T03:43:52;11.53;;;5.50;;
46090;SDS011;31826;53.572;10.170;2024-01-30T03:46:18;12.57;;;5.97;;
46090;SDS011;31826;53.572;10.170;2024-01-30T03:48:44;14.63;;;6.00;;
46090;SDS011;31826;53.572;10.170;2024-01-30T03:51:10;13.60;;;5.78;;
46090;SDS011;31826;53.572;10.170;2024-01-30T03:53:41;12.97;;;5.60;;
46090;SDS011;31826;53.572;10.170;2024-01-30T03:56:07;12.35;;;6.20;;
46090;SDS011;31826;53.572;10.170;2024-01-30T03:58:33;14.65;;;6.32;;
46090;SDS011;31826;53.572;10.170;2024-01-30T04:00:59;13.50;;;5.97;;
46090;SDS011;31826;53.572;10.170;2024-01-30T04:03:25;12.07;;;5.93;;
46090;SDS011;31826;53.572;10.170;2024-01-30T04:05:53;12.67;;;6.30;;
46090;SDS011;31826;53.572;10.170;2024-01-30T04:08:19;14.88;;;6.70;;
46090;SDS011;31826;53.572;10.170;2024-01-30T04:10:45;14.00;;;6.77;;
46090;SDS011;31826;53.572;10.170;2024-01-30T04:13:11;15.60;;;7.18;;
46090;SDS011;31826;53.572;10.170;2024-01-30T04:15:37;14.60;;;6.57;;
46090;SDS011;31826;53.572;10.170;2024-01-30T04:18:03;13.93;;;6.72;;
46090;SDS011;31826;53.572;10.170;2024-01-30T04:20:29;14.63;;;7.13;;
46090;SDS011;31826;53.572;10.170;2024-01-30T04:22:55;12.20;;;6.53;;
46090;SDS011;31826;53.572;10.170;2024-01-30T04:25:21;12.52;;;6.40;;
46090;SDS011;31826;53.572;10.170;2024-01-30T04:27:47;14.10;;;6.80;;
46090;SDS011;31826;53.572;10.170;2024-01-30T04:30:13;13.98;;;6.25;;
46090;SDS011;31826;53.572;10.170;2024-01-30T04:32:39;13.10;;;6.32;;
46090;SDS011;31826;53.572;10.170;2024-01-30T04:35:05;13.45;;;6.50;;
46090;SDS011;31826;53.572;10.170;2024-01-30T04:37:30;12.82;;;6.55;;
46090;SDS011;31826;53.572;10.170;2024-01-30T04:39:56;12.60;;;6.15;;
46090;SDS011;31826;53.572;10.170;2024-01-30T04:42:22;12.77;;;6.65;;
46090;SDS011;31826;53.572;10.170;2024-01-30T04:44:48;14.30;;;6.53;;
46090;SDS011;31826;53.572;10.170;2024-01-30T04:47:13;13.02;;;6.70;;
46090;SDS011;31826;53.572;10.170;2024-01-30T04:49:39;13.23;;;6.53;;
46090;SDS011;31826;53.572;10.170;2024-01-30T04:52:05;13.73;;;6.22;;
46090;SDS011;31826;53.572;10.170;2024-01-30T04:54:32;13.02;;;7.07;;
46090;SDS011;31826;53.572;10.170;2024-01-30T04:56:58;13.88;;;6.45;;
46090;SDS011;31826;53.572;10.170;2024-01-30T04:59:23;12.93;;;6.90;;
46090;SDS011;31826;53.572;10.170;2024-01-30T05:01:49;16.23;;;7.07;;
46090;SDS011;31826;53.572;10.170;2024-01-30T05:04:15;18.35;;;7.72;;
46090;SDS011;31826;53.572;10.170;2024-01-30T05:06:40;15.40;;;7.22;;
46090;SDS011;31826;53.572;10.170;2024-01-30T05:09:06;18.13;;;7.28;;
46090;SDS011;31826;53.572;10.170;2024-01-30T05:11:36;14.88;;;7.40;;
46090;SDS011;31826;53.572;10.170;2024-01-30T05:14:06;15.27;;;6.97;;
46090;SDS011;31826;53.572;10.170;2024-01-30T05:16:32;14.00;;;7.03;;
46090;SDS011;31826;53.572;10.170;2024-01-30T05:18:58;13.18;;;6.95;;
46090;SDS011;31826;53.572;10.170;2024-01-30T05:21:24;13.57;;;6.82;;
46090;SDS011;31826;53.572;10.170;2024-01-30T05:23:50;15.15;;;7.00;;
46090;SDS011;31826;53.572;10.170;2024-01-30T05:26:16;14.27;;;7.23;;
46090;SDS011;31826;53.572;10.170;2024-01-30T05:28:42;15.13;;;7.47;;
46090;SDS011;31826;53.572;10.170;2024-01-30T05:31:09;16.27;;;7.47;;
46090;SDS011;31826;53.572;10.170;2024-01-30T05:33:35;15.38;;;7.22;;
46090;SDS011;31826;53.572;10.170;2024-01-30T05:36:02;15.50;;;7.43;;
46090;SDS011;31826;53.572;10.170;2024-01-30T05:38:28;16.33;;;7.70;;
46090;SDS011;31826;53.572;10.170;2024-01-30T05:40:55;13.90;;;7.35;;
46090;SDS011;31826;53.572;10.170;2024-01-30T05:43:21;15.43;;;8.00;;
46090;SDS011;31826;53.572;10.170;2024-01-30T05:45:46;16.42;;;7.22;;
46090;SDS011;31826;53.572;10.170;2024-01-30T05:48:12;17.05;;;7.88;;
46090;SDS011;31826;53.572;10.170;2024-01-30T05:50:37;15.07;;;7.80;;
46090;SDS011;31826;53.572;10.170;2024-01-30T05:53:03;17.83;;;7.40;;
46090;SDS011;31826;53.572;10.170;2024-01-30T05:55:29;17.03;;;7.27;;
46090;SDS011;31826;53.572;10.170;2024-01-30T05:57:55;15.27;;;7.70;;
46090;SDS011;31826;53.572;10.170;2024-01-30T06:00:20;16.13;;;7.73;;
46090;SDS011;31826;53.572;10.170;2024-01-30T06:02:46;15.90;;;7.83;;
46090;SDS011;31826;53.572;10.170;2024-01-30T06:05:12;17.93;;;8.17;;
46090;SDS011;31826;53.572;10.170;2024-01-30T06:07:37;18.63;;;8.60;;
46090;SDS011;31826;53.572;10.170;2024-01-30T06:10:03;16.63;;;8.23;;
46090;SDS011;31826;53.572;10.170;2024-01-30T06:12:29;17.33;;;8.57;;
46090;SDS011;31826;53.572;10.170;2024-01-30T06:14:55;16.55;;;7.85;;
46090;SDS011;31826;53.572;10.170;2024-01-30T06:17:22;18.83;;;9.03;;
46090;SDS011;31826;53.572;10.170;2024-01-30T06:19:48;18.90;;;8.90;;
46090;SDS011;31826;53.572;10.170;2024-01-30T06:22:14;19.60;;;9.53;;
46090;SDS011;31826;53.572;10.170;2024-01-30T06:24:41;19.70;;;9.13;;
46090;SDS011;31826;53.572;10.170;2024-01-30T06:27:06;19.17;;;9.57;;
46090;SDS011;31826;53.572;10.170;2024-01-30T06:29:32;15.43;;;7.72;;
46090;SDS011;31826;53.572;10.170;2024-01-30T06:31:58;17.60;;;8.43;;
46090;SDS011;31826;53.572;10.170;2024-01-30T06:34:24;17.60;;;8.35;;
46090;SDS011;31826;53.572;10.170;2024-01-30T06:36:51;20.63;;;8.40;;
46090;SDS011;31826;53.572;10.170;2024-01-30T06:39:17;17.33;;;8.30;;
46090;SDS011;31826;53.572;10.170;2024-01-30T06:41:43;16.50;;;8.43;;
46090;SDS011;31826;53.572;10.170;2024-01-30T06:44:08;16.00;;;8.07;;
46090;SDS011;31826;53.572;10.170;2024-01-30T06:46:34;16.47;;;8.43;;
46090;SDS011;31826;53.572;10.170;2024-01-30T06:49:00;17.98;;;8.23;;
46090;SDS011;31826;53.572;10.170;2024-01-30T06:51:26;16.80;;;8.10;;
46090;SDS011;31826;53.572;10.170;2024-01-30T06:53:52;22.02;;;8.40;;
46090;SDS011;31826;53.572;10.170;2024-01-30T06:56:18;16.98;;;8.02;;
46090;SDS011;31826;53.572;10.170;2024-01-30T06:58:46;16.95;;;8.23;;
46090;SDS011;31826;53.572;10.170;2024-01-30T07:01:13;15.85;;;8.07;;
46090;SDS011;31826;53.572;10.170;2024-01-30T07:03:39;17.45;;;8.45;;
46090;SDS011;31826;53.572;10.170;2024-01-30T07:06:05;17.43;;;8.23;;
46090;SDS011;31826;53.572;10.170;2024-01-30T07:08:31;21.57;;;9.27;;
46090;SDS011;31826;53.572;10.170;2024-01-30T07:10:56;17.47;;;8.23;;
46090;SDS011;31826;53.572;10.170;2024-01-30T07:13:22;17.57;;;8.10;;
46090;SDS011;31826;53.572;10.170;2024-01-30T07:15:48;19.37;;;8.40;;
46090;SDS011;31826;53.572;10.170;2024-01-30T07:18:14;16.13;;;8.40;;
46090;SDS011;31826;53.572;10.170;2024-01-30T07:20:40;15.53;;;8.20;;
46090;SDS011;31826;53.572;10.170;2024-01-30T07:23:11;17.98;;;8.90;;
46090;SDS011;31826;53.572;10.170;2024-01-30T07:25:42;16.90;;;8.60;;
46090;SDS011;31826;53.572;10.170;2024-01-30T07:28:09;17.40;;;8.38;;
46090;SDS011;31826;53.572;10.170;2024-01-30T07:30:35;17.92;;;9.05;;
46090;SDS011;31826;53.572;10.170;2024-01-30T07:33:01;20.97;;;9.07;;
46090;SDS011;31826;53.572;10.170;2024-01-30T07:35:27;18.38;;;8.60;;
46090;SDS011;31826;53.572;10.170;2024-01-30T07:37:53;16.95;;;8.63;;
46090;SDS011;31826;53.572;10.170;2024-01-30T07:40:19;21.13;;;9.63;;
46090;SDS011;31826;53.572;10.170;2024-01-30T07:42:44;19.77;;;9.57;;
46090;SDS011;31826;53.572;10.170;2024-01-30T07:45:10;17.70;;;8.70;;
46090;SDS011;31826;53.572;10.170;2024-01-30T07:47:36;18.60;;;8.43;;
46090;SDS011;31826;53.572;10.170;2024-01-30T07:50:02;18.73;;;8.68;;
46090;SDS011;31826;53.572;10.170;2024-01-30T07:52:28;18.05;;;9.18;;
46090;SDS011;31826;53.572;10.170;2024-01-30T07:54:53;18.30;;;8.85;;
46090;SDS011;31826;53.572;10.170;2024-01-30T07:57:20;19.40;;;9.32;;
46090;SDS011;31826;53.572;10.170;2024-01-30T07:59:46;17.23;;;8.30;;
46090;SDS011;31826;53.572;10.170;2024-01-30T08:02:12;19.20;;;9.75;;
46090;SDS011;31826;53.572;10.170;2024-01-30T08:04:38;19.38;;;9.40;;
46090;SDS011;31826;53.572;10.170;2024-01-30T08:07:04;19.83;;;8.60;;
46090;SDS011;31826;53.572;10.170;2024-01-30T08:09:29;19.43;;;8.80;;
46090;SDS011;31826;53.572;10.170;2024-01-30T08:11:55;18.90;;;8.38;;
46090;SDS011;31826;53.572;10.170;2024-01-30T08:14:21;18.30;;;9.27;;
46090;SDS011;31826;53.572;10.170;2024-01-30T08:16:47;18.00;;;8.55;;
46090;SDS011;31826;53.572;10.170;2024-01-30T08:19:14;17.95;;;9.45;;
46090;SDS011;31826;53.572;10.170;2024-01-30T08:21:40;20.45;;;8.80;;
46090;SDS011;31826;53.572;10.170;2024-01-30T08:24:06;19.48;;;9.60;;
46090;SDS011;31826;53.572;10.170;2024-01-30T08:26:32;20.75;;;9.57;;
46090;SDS011;31826;53.572;10.170;2024-01-30T08:28:58;18.20;;;9.48;;
46090;SDS011;31826;53.572;10.170;2024-01-30T08:31:24;20.95;;;9.30;;
46090;SDS011;31826;53.572;10.170;2024-01-30T08:33:52;20.25;;;9.73;;
46090;SDS011;31826;53.572;10.170;2024-01-30T08:36:17;18.60;;;9.23;;
46090;SDS011;31826;53.572;10.170;2024-01-30T08:38:44;19.75;;;9.65;;
46090;SDS011;31826;53.572;10.170;2024-01-30T08:41:09;19.67;;;8.88;;
46090;SDS011;31826;53.572;10.170;2024-01-30T08:43:35;18.95;;;8.98;;
46090;SDS011;31826;53.572;10.170;2024-01-30T08:46:01;19.85;;;9.15;;
46090;SDS011;31826;53.572;10.170;2024-01-30T08:48:28;19.23;;;9.68;;
46090;SDS011;31826;53.572;10.170;2024-01-30T08:50:54;19.33;;;9.47;;
46090;SDS011;31826;53.572;10.170;2024-01-30T08:53:20;20.77;;;9.20;;
46090;SDS011;31826;53.572;10.170;2024-01-30T08:55:45;20.00;;;10.20;;
46090;SDS011;31826;53.572;10.170;2024-01-30T08:58:11;19.37;;;8.87;;
46090;SDS011;31826;53.572;10.170;2024-01-30T09:00:37;19.42;;;9.70;;
46090;SDS011;31826;53.572;10.170;2024-01-30T09:03:03;20.20;;;9.65;;
46090;SDS011;31826;53.572;10.170;2024-01-30T09:05:29;20.47;;;10.80;;
46090;SDS011;31826;53.572;10.170;2024-01-30T09:07:54;20.73;;;9.90;;
46090;SDS011;31826;53.572;10.170;2024-01-30T09:10:20;21.73;;;10.60;;
46090;SDS011;31826;53.572;10.170;2024-01-30T09:12:47;18.13;;;10.00;;
46090;SDS011;31826;53.572;10.170;2024-01-30T09:15:13;19.42;;;9.90;;
46090;SDS011;31826;53.572;10.170;2024-01-30T09:17:39;17.77;;;9.05;;
46090;SDS011;31826;53.572;10.170;2024-01-30T09:20:04;17.50;;;8.55;;
46090;SDS011;31826;53.572;10.170;2024-01-30T09:22:31;19.00;;;8.85;;
46090;SDS011;31826;53.572;10.170;2024-01-30T09:24:57;20.03;;;9.63;;
46090;SDS011;31826;53.572;10.170;2024-01-30T09:27:23;18.23;;;9.10;;
46090;SDS011;31826;53.572;10.170;2024-01-30T09:29:48;18.33;;;9.27;;
46090;SDS011;31826;53.572;10.170;2024-01-30T09:32:14;16.23;;;8.25;;
46090;SDS011;31826;53.572;10.170;2024-01-30T09:34:40;16.90;;;8.85;;
46090;SDS011;31826;53.572;10.170;2024-01-30T09:37:06;21.13;;;8.55;;
46090;SDS011;31826;53.572;10.170;2024-01-30T09:39:32;16.63;;;8.37;;
46090;SDS011;31826;53.572;10.170;2024-01-30T09:44:45;18.40;;;8.63;;
46090;SDS011;31826;53.572;10.170;2024-01-30T09:47:15;17.75;;;8.80;;
46090;SDS011;31826;53.572;10.170;2024-01-30T09:49:43;18.73;;;8.73;;
46090;SDS011;31826;53.572;10.170;2024-01-30T09:52:09;19.53;;;9.00;;
46090;SDS011;31826;53.572;10.170;2024-01-30T09:54:35;17.85;;;8.57;;
46090;SDS011;31826;53.572;10.170;2024-01-30T09:57:03;17.65;;;8.38;;
46090;SDS011;31826;53.572;10.170;2024-01-30T09:59:29;20.98;;;10.48;;
46090;SDS011;31826;53.572;10.170;2024-01-30T10:01:55;17.58;;;8.57;;
46090;SDS011;31826;53.572;10.170;2024-01-30T10:04:22;16.50;;;9.07;;
46090;SDS011;31826;53.572;10.170;2024-01-30T10:06:47;16.27;;;8.37;;
46090;SDS011;31826;53.572;10.170;2024-01-30T10:09:13;19.90;;;9.90;;
46090;SDS011;31826;53.572;10.170;2024-01-30T10:11:39;19.70;;;8.33;;
46090;SDS011;31826;53.572;10.170;2024-01-30T10:14:05;19.27;;;8.07;;
46090;SDS011;31826;53.572;10.170;2024-01-30T10:16:30;17.97;;;8.77;;
46090;SDS011;31826;53.572;10.170;2024-01-30T10:18:56;15.87;;;7.73;;
46090;SDS011;31826;53.572;10.170;2024-01-30T10:21:22;15.60;;;8.07;;
46090;SDS011;31826;53.572;10.170;2024-01-30T10:23:48;16.48;;;8.18;;
46090;SDS011;31826;53.572;10.170;2024-01-30T10:26:16;18.65;;;8.48;;
46090;SDS011;31826;53.572;10.170;2024-01-30T10:28:42;18.38;;;7.97;;
46090;SDS011;31826;53.572;10.170;2024-01-30T10:31:08;17.17;;;7.87;;
46090;SDS011;31826;53.572;10.170;2024-01-30T10:33:34;15.30;;;8.40;;
46090;SDS011;31826;53.572;10.170;2024-01-30T10:36:00;19.63;;;8.93;;
46090;SDS011;31826;53.572;10.170;2024-01-30T10:38:30;16.30;;;7.75;;
46090;SDS011;31826;53.572;10.170;2024-01-30T10:40:57;15.68;;;8.10;;
46090;SDS011;31826;53.572;10.170;2024-01-30T10:43:24;18.48;;;8.52;;
46090;SDS011;31826;53.572;10.170;2024-01-30T10:46:00;15.38;;;7.70;;
46090;SDS011;31826;53.572;10.170;2024-01-30T10:48:50;17.17;;;8.45;;
46090;SDS011;31826;53.572;10.170;2024-01-30T10:51:22;17.77;;;8.63;;
46090;SDS011;31826;53.572;10.170;2024-01-30T10:53:50;16.75;;;8.52;;
46090;SDS011;31826;53.572;10.170;2024-01-30T10:56:18;15.05;;;7.50;;
46090;SDS011;31826;53.572;10.170;2024-01-30T10:58:47;21.70;;;8.50;;
46090;SDS011;31826;53.572;10.170;2024-01-30T11:01:14;15.63;;;7.80;;
46090;SDS011;31826;53.572;10.170;2024-01-30T11:03:40;19.55;;;8.77;;
46090;SDS011;31826;53.572;10.170;2024-01-30T11:06:10;15.77;;;8.37;;
46090;SDS011;31826;53.572;10.170;2024-01-30T11:08:39;17.20;;;8.18;;
46090;SDS011;31826;53.572;10.170;2024-01-30T11:11:07;16.88;;;7.95;;
46090;SDS011;31826;53.572;10.170;2024-01-30T11:13:34;15.40;;;7.80;;
46090;SDS011;31826;53.572;10.170;2024-01-30T11:16:03;15.20;;;7.97;;
46090;SDS011;31826;53.572;10.170;2024-01-30T11:18:30;14.90;;;7.07;;
46090;SDS011;31826;53.572;10.170;2024-01-30T11:20:57;14.75;;;7.70;;
46090;SDS011;31826;53.572;10.170;2024-01-30T11:23:23;15.33;;;7.63;;
46090;SDS011;31826;53.572;10.170;2024-01-30T11:25:52;15.07;;;6.97;;
46090;SDS011;31826;53.572;10.170;2024-01-30T11:28:18;15.27;;;7.67;;
46090;SDS011;31826;53.572;10.170;2024-01-30T11:30:45;15.70;;;7.27;;
46090;SDS011;31826;53.572;10.170;2024-01-30T11:33:13;17.20;;;7.43;;
46090;SDS011;31826;53.572;10.170;2024-01-30T11:35:40;16.23;;;7.93;;
46090;SDS011;31826;53.572;10.170;2024-01-30T11:38:07;16.63;;;7.40;;
46090;SDS011;31826;53.572;10.170;2024-01-30T11:40:34;15.70;;;7.30;;
46090;SDS011;31826;53.572;10.170;2024-01-30T11:43:02;15.45;;;7.43;;
46090;SDS011;31826;53.572;10.170;2024-01-30T11:45:32;14.13;;;7.45;;
46090;SDS011;31826;53.572;10.170;2024-01-30T11:47:59;18.27;;;7.07;;
46090;SDS011;31826;53.572;10.170;2024-01-30T11:50:26;14.65;;;7.00;;
46090;SDS011;31826;53.572;10.170;2024-01-30T11:52:53;14.57;;;7.30;;
46090;SDS011;31826;53.572;10.170;2024-01-30T11:55:19;16.77;;;7.20;;
46090;SDS011;31826;53.572;10.170;2024-01-30T11:57:45;15.80;;;7.07;;
46090;SDS011;31826;53.572;10.170;2024-01-30T12:00:14;16.27;;;7.10;;
46090;SDS011;31826;53.572;10.170;2024-01-30T12:02:41;16.88;;;7.50;;
46090;SDS011;31826;53.572;10.170;2024-01-30T12:05:07;15.40;;;7.10;;
46090;SDS011;31826;53.572;10.170;2024-01-30T12:07:34;12.43;;;6.72;;
46090;SDS011;31826;53.572;10.170;2024-01-30T12:10:01;14.85;;;7.28;;
46090;SDS011;31826;53.572;10.170;2024-01-30T12:12:27;15.80;;;6.97;;
46090;SDS011;31826;53.572;10.170;2024-01-30T12:14:54;14.90;;;7.47;;
46090;SDS011;31826;53.572;10.170;2024-01-30T12:17:26;14.82;;;7.07;;
46090;SDS011;31826;53.572;10.170;2024-01-30T12:20:18;14.88;;;7.55;;
46090;SDS011;31826;53.572;10.170;2024-01-30T12:22:45;14.40;;;6.78;;
46090;SDS011;31826;53.572;10.170;2024-01-30T12:25:13;14.55;;;6.88;;
46090;SDS011;31826;53.572;10.170;2024-01-30T12:27:44;15.50;;;6.85;;
46090;SDS011;31826;53.572;10.170;2024-01-30T12:30:13;15.70;;;7.18;;
46090;SDS011;31826;53.572;10.170;2024-01-30T12:32:40;16.88;;;7.55;;
46090;SDS011;31826;53.572;10.170;2024-01-30T12:35:11;15.02;;;7.30;;
46090;SDS011;31826;53.572;10.170;2024-01-30T12:37:38;15.98;;;7.10;;
46090;SDS011;31826;53.572;10.170;2024-01-30T12:40:04;17.23;;;7.40;;
46090;SDS011;31826;53.572;10.170;2024-01-30T12:42:34;18.30;;;7.28;;
46090;SDS011;31826;53.572;10.170;2024-01-30T12:45:01;15.02;;;7.15;;
46090;SDS011;31826;53.572;10.170;2024-01-30T12:47:28;13.60;;;7.28;;
46090;SDS011;31826;53.572;10.170;2024-01-30T12:49:53;15.57;;;7.53;;
46090;SDS011;31826;53.572;10.170;2024-01-30T12:52:20;15.80;;;7.33;;
46090;SDS011;31826;53.572;10.170;2024-01-30T12:54:47;14.45;;;7.45;;
46090;SDS011;31826;53.572;10.170;2024-01-30T12:57:13;15.10;;;7.32;;
46090;SDS011;31826;53.572;10.170;2024-01-30T12:59:39;17.48;;;7.45;;
46090;SDS011;31826;53.572;10.170;2024-01-30T13:02:04;14.50;;;6.82;;
46090;SDS011;31826;53.572;10.170;2024-01-30T13:04:31;16.90;;;6.85;;
46090;SDS011;31826;53.572;10.170;2024-01-30T13:06:57;14.32;;;6.75;;
46090;SDS011;31826;53.572;10.170;2024-01-30T13:09:23;21.07;;;7.33;;
46090;SDS011;31826;53.572;10.170;2024-01-30T13:11:49;14.73;;;7.07;;
46090;SDS011;31826;53.572;10.170;2024-01-30T13:14:16;13.03;;;7.03;;
46090;SDS011;31826;53.572;10.170;2024-01-30T13:16:43;16.20;;;6.70;;
46090;SDS011;31826;53.572;10.170;2024-01-30T13:19:08;15.68;;;7.88;;
46090;SDS011;31826;53.572;10.170;2024-01-30T13:21:34;13.63;;;7.00;;
46090;SDS011;31826;53.572;10.170;2024-01-30T13:24:00;15.55;;;7.57;;
46090;SDS011;31826;53.572;10.170;2024-01-30T13:26:25;15.02;;;7.07;;
46090;SDS011;31826;53.572;10.170;2024-01-30T13:28:51;14.75;;;6.97;;
46090;SDS011;31826;53.572;10.170;2024-01-30T13:31:17;15.68;;;7.07;;
46090;SDS011;31826;53.572;10.170;2024-01-30T13:33:44;15.77;;;7.35;;
46090;SDS011;31826;53.572;10.170;2024-01-30T13:36:10;13.25;;;7.10;;
46090;SDS011;31826;53.572;10.170;2024-01-30T13:38:37;12.43;;;6.35;;
46090;SDS011;31826;53.572;10.170;2024-01-30T13:41:04;17.83;;;6.88;;
46090;SDS011;31826;53.572;10.170;2024-01-30T13:43:29;15.23;;;6.70;;
46090;SDS011;31826;53.572;10.170;2024-01-30T13:45:55;14.27;;;6.27;;
46090;SDS011;31826;53.572;10.170;2024-01-30T13:48:21;19.15;;;8.65;;
46090;SDS011;31826;53.572;10.170;2024-01-30T13:50:47;31.05;;;11.77;;
46090;SDS011;31826;53.572;10.170;2024-01-30T13:53:13;31.50;;;12.20;;
46090;SDS011;31826;53.572;10.170;2024-01-30T13:55:38;13.80;;;6.60;;
46090;SDS011;31826;53.572;10.170;2024-01-30T13:58:04;14.20;;;6.72;;
46090;SDS011;31826;53.572;10.170;2024-01-30T14:00:33;13.30;;;6.60;;
46090;SDS011;31826;53.572;10.170;2024-01-30T14:02:59;15.03;;;7.30;;
46090;SDS011;31826;53.572;10.170;2024-01-30T14:05:25;15.73;;;6.67;;
46090;SDS011;31826;53.572;10.170;2024-01-30T14:07:53;15.05;;;7.32;;
46090;SDS011;31826;53.572;10.170;2024-01-30T14:10:19;12.77;;;6.70;;
46090;SDS011;31826;53.572;10.170;2024-01-30T14:12:45;14.55;;;7.28;;
46090;SDS011;31826;53.572;10.170;2024-01-30T14:15:13;13.85;;;6.53;;
46090;SDS011;31826;53.572;10.170;2024-01-30T14:17:40;18.45;;;6.80;;
46090;SDS011;31826;53.572;10.170;2024-01-30T14:20:06;14.82;;;6.55;;